Time;durP1;ratioP1;P1;durP2;ratioP2;P2;SDS_P1;SDS_P2;PMS_P1;PMS_P2;Temp;Humidity;BMP_temperature;BMP_pressure;BME280_temperature;BME280_humidity;BME280_pressure;Samples;Min_cycle;Max_cycle;Signal;HPM_P1;HPM_P2
2021/08/13 00:02:07;;;;;;;11.23;10.02;;;16.90;99.90;;;;;;5095607;28;20294;-69
2021/08/13 00:04:33;;;;;;;12.02;10.13;;;16.90;99.90;;;;;;5094893;28;20037;-70
2021/08/13 00:06:58;;;;;;;10.63;9.50;;;16.90;99.90;;;;;;5095422;28;20472;-70
2021/08/13 00:09:24;;;;;;;10.38;9.27;;;17.00;99.90;;;;;;5095920;28;20149;-71
2021/08/13 00:11:50;;;;;;;11.10;9.90;;;17.00;99.90;;;;;;5094448;28;20047;-70
2021/08/13 00:14:16;;;;;;;10.05;9.02;;;17.10;99.90;;;;;;5095540;28;20020;-70
2021/08/13 00:16:41;;;;;;;10.20;9.18;;;17.10;99.90;;;;;;5095046;28;20594;-70
2021/08/13 00:19:07;;;;;;;12.60;9.48;;;17.10;99.90;;;;;;5094634;28;20040;-70
2021/08/13 00:21:33;;;;;;;12.35;10.05;;;17.20;99.90;;;;;;5095218;28;20028;-69
2021/08/13 00:23:59;;;;;;;9.80;8.80;;;17.10;99.90;;;;;;5094976;28;20031;-69
2021/08/13 00:26:27;;;;;;;10.93;9.80;;;17.10;99.90;;;;;;5094538;28;20024;-70
2021/08/13 00:28:53;;;;;;;10.82;8.93;;;17.10;99.90;;;;;;5094780;28;20016;-69
2021/08/13 00:31:19;;;;;;;10.35;9.02;;;17.00;99.90;;;;;;5095027;28;20035;-69
2021/08/13 00:33:44;;;;;;;9.10;8.20;;;17.00;99.90;;;;;;5094564;28;20103;-69
2021/08/13 00:36:10;;;;;;;8.73;7.93;;;16.90;99.90;;;;;;5094764;28;20055;-70
2021/08/13 00:38:35;;;;;;;10.50;9.40;;;16.90;99.90;;;;;;5094800;28;20171;-69
2021/08/13 00:41:03;;;;;;;10.07;9.07;;;16.80;99.90;;;;;;5093682;28;20094;-69
2021/08/13 00:43:29;;;;;;;9.95;8.95;;;16.80;99.90;;;;;;5094884;28;20020;-69
2021/08/13 00:45:54;;;;;;;10.77;8.63;;;16.70;99.90;;;;;;5094343;28;20040;-69
2021/08/13 00:48:20;;;;;;;11.93;8.45;;;16.70;99.90;;;;;;5093930;28;20103;-69
2021/08/13 00:50:46;;;;;;;9.82;8.20;;;16.60;99.90;;;;;;5094264;28;20039;-71
2021/08/13 00:53:12;;;;;;;9.55;8.13;;;16.60;99.90;;;;;;5094425;28;20033;-69
2021/08/13 00:55:37;;;;;;;8.80;7.90;;;16.60;99.90;;;;;;5093846;28;20027;-69
2021/08/13 00:58:04;;;;;;;10.32;8.23;;;16.50;99.90;;;;;;5094010;28;20028;-69
2021/08/13 01:00:32;;;;;;;9.60;7.60;;;16.50;99.90;;;;;;5093610;28;20361;-70
2021/08/13 01:02:57;;;;;;;10.27;8.55;;;16.50;99.90;;;;;;5093779;28;20116;-70
2021/08/13 01:05:23;;;;;;;12.27;8.48;;;16.40;99.90;;;;;;5094518;28;20016;-70
2021/08/13 01:07:49;;;;;;;8.85;7.15;;;16.40;99.90;;;;;;5093624;28;20032;-69
2021/08/13 01:10:14;;;;;;;9.85;7.72;;;16.40;99.90;;;;;;5093830;28;20480;-69
2021/08/13 01:12:46;;;;;;;8.32;7.40;;;16.40;99.90;;;;;;5094145;28;20472;-70
2021/08/13 01:15:15;;;;;;;8.38;7.47;;;16.30;99.90;;;;;;5093448;28;20024;-70
2021/08/13 01:17:50;;;;;;;8.30;7.45;;;16.30;99.90;;;;;;5093843;28;20023;-70
2021/08/13 01:20:47;;;;;;;10.43;7.35;;;16.30;99.90;;;;;;5094044;28;20054;-70
2021/08/13 01:23:19;;;;;;;7.82;7.03;;;16.40;99.90;;;;;;5093358;28;20141;-69
2021/08/13 01:25:58;;;;;;;6.38;5.78;;;16.40;99.90;;;;;;5093758;28;20495;-70
2021/08/13 01:28:47;;;;;;;7.97;7.18;;;16.50;99.90;;;;;;5089645;28;20029;-69
2021/08/13 01:31:20;;;;;;;7.57;6.35;;;16.70;99.90;;;;;;5085281;28;20036;-69
2021/08/13 01:33:48;;;;;;;10.48;7.03;;;16.70;99.90;;;;;;5093585;28;20024;-69
2021/08/13 01:36:15;;;;;;;7.93;7.13;;;16.80;99.90;;;;;;5093021;28;20059;-69
2021/08/13 01:38:42;;;;;;;6.82;6.07;;;16.90;99.90;;;;;;5093547;28;20021;-69
2021/08/13 01:41:10;;;;;;;7.13;6.43;;;17.00;99.90;;;;;;5093536;28;20047;-71
2021/08/13 01:43:41;;;;;;;7.15;6.45;;;17.10;99.90;;;;;;5093056;28;20032;-70
2021/08/13 01:46:07;;;;;;;7.05;6.35;;;17.10;99.90;;;;;;5093533;28;20410;-69
2021/08/13 01:48:35;;;;;;;6.88;5.85;;;17.10;99.90;;;;;;5093638;28;20028;-71
2021/08/13 01:51:01;;;;;;;7.75;6.95;;;17.10;99.90;;;;;;5092327;28;20369;-69
2021/08/13 01:53:28;;;;;;;7.07;6.40;;;17.10;99.90;;;;;;5093476;28;20084;-69
2021/08/13 01:55:55;;;;;;;10.65;6.80;;;17.00;99.90;;;;;;5093171;28;20514;-70
2021/08/13 01:58:22;;;;;;;10.35;6.70;;;17.00;99.90;;;;;;5092649;28;20039;-72
2021/08/13 02:00:51;;;;;;;7.47;6.05;;;16.90;99.90;;;;;;5092948;28;20016;-70
2021/08/13 02:03:17;;;;;;;7.35;6.65;;;16.80;99.90;;;;;;5093217;28;20144;-70
2021/08/13 02:05:45;;;;;;;8.45;5.85;;;16.70;99.90;;;;;;5092732;28;20024;-70
2021/08/13 02:08:12;;;;;;;8.23;6.63;;;16.70;99.90;;;;;;5093182;28;20563;-70
2021/08/13 02:10:40;;;;;;;9.55;6.35;;;16.60;99.90;;;;;;5093001;28;20076;-70
2021/08/13 02:13:06;;;;;;;7.20;6.45;;;16.60;99.90;;;;;;5092238;28;20388;-70
2021/08/13 02:15:35;;;;;;;8.18;6.90;;;16.50;99.90;;;;;;5092448;28;20016;-72
2021/08/13 02:18:13;;;;;;;7.38;6.47;;;16.40;99.90;;;;;;5092225;28;20032;-69
2021/08/13 02:20:42;;;;;;;9.18;6.70;;;16.40;99.90;;;;;;5093114;28;20031;-70
2021/08/13 02:23:08;;;;;;;7.97;7.03;;;16.40;99.90;;;;;;5093000;28;20149;-68
2021/08/13 02:25:33;;;;;;;7.85;7.00;;;16.30;99.90;;;;;;5092372;28;20103;-67
2021/08/13 02:27:59;;;;;;;8.35;6.63;;;16.30;99.90;;;;;;5092502;28;20035;-70
2021/08/13 02:30:25;;;;;;;7.10;6.50;;;16.20;99.90;;;;;;5092591;28;20089;-69
2021/08/13 02:32:51;;;;;;;7.65;6.50;;;16.30;99.90;;;;;;5090671;28;20093;-73
2021/08/13 02:35:16;;;;;;;7.22;6.53;;;16.20;99.90;;;;;;5089319;28;20484;-70
2021/08/13 02:37:48;;;;;;;7.40;6.35;;;16.10;99.90;;;;;;5091613;28;20472;-68
2021/08/13 02:40:25;;;;;;;8.27;6.35;;;16.10;99.90;;;;;;5092039;28;20016;-68
2021/08/13 02:43:24;;;;;;;7.18;6.03;;;16.10;99.90;;;;;;5093395;28;20039;-68
2021/08/13 02:45:53;;;;;;;8.02;6.55;;;16.20;99.90;;;;;;5083099;28;20017;-68
2021/08/13 02:48:20;;;;;;;8.48;6.63;;;16.20;99.90;;;;;;5092280;28;20350;-72
2021/08/13 02:50:47;;;;;;;7.57;6.55;;;16.20;99.90;;;;;;5092100;28;20016;-69
2021/08/13 02:53:19;;;;;;;8.15;6.95;;;16.20;99.90;;;;;;5092421;28;20385;-70
2021/08/13 02:55:50;;;;;;;7.45;6.25;;;16.20;99.90;;;;;;5091920;28;20031;-72
2021/08/13 02:58:21;;;;;;;6.65;5.95;;;16.20;99.90;;;;;;5092651;28;20062;-72
2021/08/13 03:00:48;;;;;;;7.88;7.07;;;16.10;99.90;;;;;;5091683;28;20026;-71
2021/08/13 03:03:16;;;;;;;7.93;7.13;;;16.10;99.90;;;;;;5092674;28;20031;-71
2021/08/13 03:05:46;;;;;;;10.40;7.57;;;16.10;99.90;;;;;;5092218;28;20101;-72
2021/08/13 03:08:12;;;;;;;11.57;7.93;;;16.10;99.90;;;;;;5091727;28;20020;-77
2021/08/13 03:10:39;;;;;;;11.07;8.32;;;16.00;99.90;;;;;;5091037;28;20047;-75
2021/08/13 03:13:08;;;;;;;10.23;8.32;;;16.00;99.90;;;;;;5092505;28;20378;-70
2021/08/13 03:15:35;;;;;;;11.30;7.13;;;16.00;99.90;;;;;;5091923;28;20095;-69
2021/08/13 03:18:02;;;;;;;9.27;6.97;;;16.00;99.90;;;;;;5092180;28;20082;-69
2021/08/13 03:20:28;;;;;;;7.88;6.63;;;16.00;99.90;;;;;;5092321;28;20031;-70
2021/08/13 03:22:54;;;;;;;9.85;7.53;;;15.90;99.90;;;;;;5091535;28;20024;-70
2021/08/13 03:25:20;;;;;;;9.20;7.30;;;15.90;99.90;;;;;;5092277;28;20429;-72
2021/08/13 03:27:46;;;;;;;9.13;7.57;;;15.80;99.90;;;;;;5095936;28;20024;-71
2021/08/13 03:30:12;;;;;;;9.25;7.20;;;15.80;99.90;;;;;;5095500;28;20495;-70
2021/08/13 03:32:39;;;;;;;9.98;8.15;;;15.80;99.90;;;;;;5096239;28;20032;-72
2021/08/13 03:35:05;;;;;;;8.02;7.22;;;15.70;99.90;;;;;;5095761;28;20487;-71
2021/08/13 03:37:31;;;;;;;7.30;6.57;;;15.70;99.90;;;;;;5095369;28;20020;-70
2021/08/13 03:39:57;;;;;;;7.65;6.88;;;15.70;99.90;;;;;;5095740;28;20472;-76
2021/08/13 03:42:23;;;;;;;8.23;6.60;;;15.70;99.90;;;;;;5095678;28;20024;-71
2021/08/13 03:44:48;;;;;;;7.00;6.30;;;15.60;99.90;;;;;;5095659;28;20020;-70
2021/08/13 03:47:14;;;;;;;8.70;7.13;;;15.60;99.90;;;;;;5095932;28;20024;-71
2021/08/13 03:49:40;;;;;;;8.45;7.15;;;15.60;99.90;;;;;;5095447;28;20046;-71
2021/08/13 03:52:05;;;;;;;8.82;7.40;;;15.60;99.90;;;;;;5095734;28;20036;-71
2021/08/13 03:54:31;;;;;;;9.32;7.38;;;15.60;99.90;;;;;;5095942;28;20054;-71
2021/08/13 03:56:56;;;;;;;7.82;7.03;;;15.70;99.90;;;;;;5094690;28;20031;-70
2021/08/13 03:59:22;;;;;;;8.57;6.65;;;15.70;99.90;;;;;;5095498;28;20099;-70
2021/08/13 04:01:47;;;;;;;9.77;7.30;;;15.70;99.90;;;;;;5095336;28;20107;-71
2021/08/13 04:04:13;;;;;;;9.10;6.90;;;15.70;99.90;;;;;;5093465;28;20385;-69
2021/08/13 04:06:38;;;;;;;9.75;7.13;;;15.70;99.90;;;;;;5095560;28;20020;-70
2021/08/13 04:09:04;;;;;;;8.10;7.30;;;15.70;99.90;;;;;;5095141;28;20472;-69
2021/08/13 04:11:30;;;;;;;8.60;7.70;;;15.70;99.90;;;;;;5094576;28;20044;-74
2021/08/13 04:13:55;;;;;;;8.70;7.80;;;15.80;99.90;;;;;;5095438;28;20023;-70
2021/08/13 04:16:21;;;;;;;8.05;7.25;;;15.80;99.90;;;;;;5095325;28;20027;-74
2021/08/13 04:18:47;;;;;;;8.32;7.53;;;15.90;99.90;;;;;;5094668;28;20472;-74
2021/08/13 04:21:13;;;;;;;8.25;7.38;;;15.90;99.90;;;;;;5095071;28;20107;-70
2021/08/13 04:23:39;;;;;;;8.68;7.38;;;15.90;99.90;;;;;;5095222;28;20154;-71
2021/08/13 04:26:04;;;;;;;10.95;7.90;;;16.00;99.90;;;;;;5094316;28;20486;-71
2021/08/13 04:28:30;;;;;;;8.93;7.40;;;16.10;99.90;;;;;;5093832;28;20454;-73
2021/08/13 04:30:55;;;;;;;9.98;8.95;;;16.20;99.90;;;;;;5094686;28;20103;-71
2021/08/13 04:33:21;;;;;;;12.57;10.07;;;16.30;99.90;;;;;;5094374;28;20473;-70
2021/08/13 04:35:47;;;;;;;12.20;10.93;;;16.30;99.90;;;;;;5094752;28;20033;-70
2021/08/13 04:38:13;;;;;;;14.70;13.13;;;16.50;99.90;;;;;;5094583;28;20020;-70
2021/08/13 04:40:38;;;;;;;12.73;11.43;;;16.60;99.90;;;;;;5094083;28;20445;-70
2021/08/13 04:43:04;;;;;;;13.32;11.40;;;16.70;99.90;;;;;;5094510;28;20035;-71
2021/08/13 04:45:29;;;;;;;13.18;11.77;;;16.80;99.90;;;;;;5094126;28;20099;-71
2021/08/13 04:47:55;;;;;;;13.00;10.98;;;16.90;99.90;;;;;;5094437;28;20030;-71
2021/08/13 04:50:21;;;;;;;13.82;12.43;;;17.00;99.90;;;;;;5094493;28;20099;-71
2021/08/13 04:52:49;;;;;;;14.55;12.98;;;17.00;99.90;;;;;;5093676;28;20032;-70
2021/08/13 04:55:22;;;;;;;15.05;13.02;;;17.00;99.90;;;;;;5093339;28;20012;-71
2021/08/13 04:57:48;;;;;;;16.00;14.32;;;17.00;99.90;;;;;;5094214;28;20476;-70
2021/08/13 05:00:15;;;;;;;15.85;13.38;;;17.00;99.90;;;;;;5094129;28;20027;-73
2021/08/13 05:02:41;;;;;;;13.48;12.18;;;17.00;99.90;;;;;;5088989;28;20069;-71
2021/08/13 05:05:08;;;;;;;16.20;13.95;;;17.00;99.90;;;;;;5089748;28;20073;-72
2021/08/13 05:07:34;;;;;;;15.93;13.80;;;17.10;99.90;;;;;;5093710;28;20028;-71
2021/08/13 05:10:05;;;;;;;16.80;14.57;;;17.10;99.90;;;;;;5093887;28;20016;-72
2021/08/13 05:12:31;;;;;;;15.15;13.48;;;17.20;99.90;;;;;;5094284;28;20032;-71
2021/08/13 05:14:56;;;;;;;16.05;14.38;;;17.20;99.90;;;;;;5093168;28;20023;-70
2021/08/13 05:17:22;;;;;;;16.58;14.88;;;17.20;99.90;;;;;;5092347;28;20031;-74
2021/08/13 05:19:48;;;;;;;17.48;15.60;;;17.20;99.90;;;;;;5093821;28;20540;-70
2021/08/13 05:22:13;;;;;;;18.35;15.15;;;17.30;99.90;;;;;;5093116;28;20024;-70
2021/08/13 05:24:39;;;;;;;19.42;17.08;;;17.40;99.90;;;;;;5095217;28;20062;-72
2021/08/13 05:27:04;;;;;;;21.80;18.50;;;17.50;99.90;;;;;;5104595;28;20020;-72
2021/08/13 05:29:30;;;;;;;20.92;18.35;;;17.60;99.90;;;;;;5091378;28;20035;-71
2021/08/13 05:31:56;;;;;;;25.10;21.52;;;17.80;99.90;;;;;;5093595;28;20036;-74
2021/08/13 05:34:21;;;;;;;22.95;19.27;;;17.80;99.90;;;;;;5088425;28;20020;-71
2021/08/13 05:36:47;;;;;;;23.95;19.73;;;17.90;99.90;;;;;;5094513;28;20123;-70
2021/08/13 05:39:12;;;;;;;24.10;20.05;;;18.00;99.90;;;;;;5101385;28;20107;-70
2021/08/13 05:41:38;;;;;;;23.02;18.58;;;18.00;99.90;;;;;;5093493;28;20022;-72
2021/08/13 05:44:03;;;;;;;19.83;17.73;;;18.10;99.90;;;;;;5092207;28;20111;-71
2021/08/13 05:46:29;;;;;;;24.88;19.25;;;18.20;99.90;;;;;;5093411;28;20027;-72
2021/08/13 05:48:55;;;;;;;23.02;17.05;;;18.30;99.90;;;;;;5091462;28;20024;-71
2021/08/13 05:51:20;;;;;;;22.17;17.73;;;18.40;99.90;;;;;;5093327;28;20064;-73
2021/08/13 05:53:46;;;;;;;19.30;16.48;;;18.50;99.90;;;;;;5103243;28;20035;-72
2021/08/13 05:56:11;;;;;;;19.17;15.38;;;18.60;99.90;;;;;;5094150;28;20369;-72
2021/08/13 05:58:37;;;;;;;18.92;16.42;;;18.70;99.90;;;;;;5093414;28;20028;-73
2021/08/13 06:01:02;;;;;;;18.60;16.38;;;18.80;99.90;;;;;;5092782;28;20532;-73
2021/08/13 06:03:28;;;;;;;18.48;16.02;;;18.90;99.90;;;;;;5092321;28;20024;-72
2021/08/13 06:05:54;;;;;;;16.15;14.43;;;19.00;99.90;;;;;;5092276;28;20023;-78
2021/08/13 06:08:19;;;;;;;17.08;14.32;;;19.10;99.90;;;;;;5092801;28;20396;-72
2021/08/13 06:10:45;;;;;;;16.15;14.43;;;19.10;99.90;;;;;;5092538;28;20168;-72
2021/08/13 06:13:10;;;;;;;18.33;15.15;;;19.20;99.90;;;;;;5092277;28;20498;-71
2021/08/13 06:15:36;;;;;;;16.02;13.15;;;19.20;99.90;;;;;;5086348;28;20020;-72
2021/08/13 06:18:02;;;;;;;14.32;12.75;;;19.20;99.90;;;;;;5092308;28;20024;-70
2021/08/13 06:20:27;;;;;;;15.40;13.80;;;19.30;99.90;;;;;;5092825;28;20101;-73
2021/08/13 06:22:53;;;;;;;14.52;12.98;;;19.30;99.90;;;;;;5092834;28;20164;-73
2021/08/13 06:25:18;;;;;;;13.85;12.00;;;19.30;99.90;;;;;;5091349;28;20427;-73
2021/08/13 06:27:45;;;;;;;14.63;12.98;;;19.30;99.90;;;;;;5092795;28;20028;-75
2021/08/13 06:30:13;;;;;;;15.70;12.77;;;19.40;99.90;;;;;;5103575;28;20065;-74
2021/08/13 06:32:39;;;;;;;15.00;12.40;;;19.40;99.90;;;;;;5112676;28;20028;-74
2021/08/13 06:35:06;;;;;;;14.02;12.57;;;19.50;99.90;;;;;;5113206;28;20024;-79
2021/08/13 06:37:32;;;;;;;13.02;11.73;;;19.50;99.90;;;;;;5107418;28;20039;-82
2021/08/13 06:39:57;;;;;;;12.55;11.15;;;19.50;99.90;;;;;;5092465;28;20024;-78
2021/08/13 06:42:23;;;;;;;13.38;11.98;;;19.50;99.90;;;;;;5093817;28;20028;-84
2021/08/13 06:44:48;;;;;;;13.00;11.20;;;19.60;99.90;;;;;;5092894;28;20093;-75
2021/08/13 06:47:14;;;;;;;11.43;10.27;;;19.60;99.90;;;;;;5091238;28;20027;-77
2021/08/13 06:49:40;;;;;;;14.00;10.02;;;19.60;99.90;;;;;;5091009;28;20097;-74
2021/08/13 06:52:09;;;;;;;11.82;10.60;;;19.60;99.90;;;;;;5091015;28;20387;-75
2021/08/13 06:54:35;;;;;;;15.50;11.25;;;19.60;99.90;;;;;;5090992;28;20024;-77
2021/08/13 06:57:01;;;;;;;13.43;10.95;;;19.60;99.90;;;;;;5092660;28;20043;-78
2021/08/13 06:59:26;;;;;;;12.30;11.00;;;19.70;99.90;;;;;;5091880;28;20030;-74
2021/08/13 07:01:52;;;;;;;13.55;10.68;;;19.60;99.90;;;;;;5095972;28;20059;-74
2021/08/13 07:04:17;;;;;;;11.63;10.35;;;19.70;99.90;;;;;;5096350;28;20028;-72
2021/08/13 07:06:43;;;;;;;16.33;10.93;;;19.80;99.90;;;;;;5094353;28;20020;-72
2021/08/13 07:09:08;;;;;;;12.80;10.80;;;19.90;99.90;;;;;;5096166;28;20020;-81
2021/08/13 07:11:34;;;;;;;12.27;9.93;;;20.00;99.90;;;;;;5095723;28;20059;-78
2021/08/13 07:13:59;;;;;;;11.45;10.15;;;20.00;99.90;;;;;;5093711;28;20012;-81
2021/08/13 07:16:25;;;;;;;12.18;9.85;;;20.10;99.90;;;;;;5096879;28;20020;-79
2021/08/13 07:18:50;;;;;;;11.52;10.32;;;20.20;99.90;;;;;;5095100;28;20039;-78
2021/08/13 07:21:16;;;;;;;13.95;11.70;;;20.30;99.90;;;;;;5094491;28;20028;-72
2021/08/13 07:23:41;;;;;;;10.77;9.63;;;20.40;99.90;;;;;;5096726;28;20024;-73
2021/08/13 07:26:07;;;;;;;14.93;12.02;;;20.40;99.90;;;;;;5096340;28;20032;-72
2021/08/13 07:28:32;;;;;;;12.98;11.57;;;20.40;99.90;;;;;;5096714;28;20426;-72
2021/08/13 07:30:58;;;;;;;12.60;11.30;;;20.30;99.90;;;;;;5096896;28;20055;-72
2021/08/13 07:33:24;;;;;;;13.43;11.50;;;20.30;99.90;;;;;;5096744;28;20035;-73
2021/08/13 07:35:49;;;;;;;13.18;11.07;;;20.30;99.90;;;;;;5095714;28;20054;-72
2021/08/13 07:38:15;;;;;;;12.70;11.10;;;20.20;99.90;;;;;;5096653;28;20095;-77
2021/08/13 07:40:40;;;;;;;17.92;10.50;;;20.20;99.90;;;;;;5096499;28;20373;-73
2021/08/13 07:43:07;;;;;;;13.80;11.82;;;20.20;99.90;;;;;;5095879;28;20024;-72
2021/08/13 07:45:33;;;;;;;14.95;11.30;;;20.20;99.90;;;;;;5097289;28;20031;-74
2021/08/13 07:47:59;;;;;;;12.90;11.15;;;20.10;99.90;;;;;;5095829;28;20021;-71
2021/08/13 07:50:25;;;;;;;12.30;10.77;;;20.10;99.90;;;;;;5095855;28;20020;-72
2021/08/13 07:52:51;;;;;;;12.68;10.25;;;20.10;99.90;;;;;;5096219;28;20024;-73
2021/08/13 07:55:17;;;;;;;15.48;11.30;;;20.20;99.90;;;;;;5096633;28;20032;-73
2021/08/13 07:57:42;;;;;;;14.10;11.60;;;20.30;99.90;;;;;;5095164;28;20048;-75
2021/08/13 08:00:08;;;;;;;14.23;11.05;;;20.30;99.90;;;;;;5096049;28;20549;-78
2021/08/13 08:02:34;;;;;;;14.90;11.52;;;20.30;99.90;;;;;;5095331;28;20024;-72
2021/08/13 08:04:59;;;;;;;13.18;11.00;;;20.30;99.90;;;;;;5095566;28;20026;-72
2021/08/13 08:07:25;;;;;;;12.32;11.02;;;20.20;99.90;;;;;;5095966;28;20012;-72
2021/08/13 08:09:50;;;;;;;13.05;10.98;;;20.10;99.90;;;;;;5094700;28;20095;-71
2021/08/13 08:12:16;;;;;;;16.40;11.40;;;20.10;99.90;;;;;;5094587;28;20110;-72
2021/08/13 08:14:41;;;;;;;14.40;11.10;;;20.00;99.90;;;;;;5094146;28;20027;-72
2021/08/13 08:17:07;;;;;;;15.02;11.57;;;20.10;99.90;;;;;;5094955;28;20492;-72
2021/08/13 08:19:32;;;;;;;13.02;10.68;;;20.10;99.90;;;;;;5095393;28;20024;-72
2021/08/13 08:21:58;;;;;;;14.40;11.10;;;20.20;99.90;;;;;;5095098;28;20031;-72
2021/08/13 08:24:24;;;;;;;12.25;10.27;;;20.40;99.90;;;;;;5094711;28;20025;-71
2021/08/13 08:26:50;;;;;;;13.60;11.50;;;20.50;99.90;;;;;;5094935;28;20024;-73
2021/08/13 08:29:15;;;;;;;12.55;9.70;;;20.70;99.90;;;;;;5094286;28;20370;-72
2021/08/13 08:31:41;;;;;;;14.43;9.80;;;20.90;99.90;;;;;;5094421;28;20366;-77
2021/08/13 08:34:06;;;;;;;10.88;9.30;;;21.00;99.90;;;;;;5095737;28;20020;-72
2021/08/13 08:36:32;;;;;;;12.35;8.65;;;21.10;99.90;;;;;;5094505;28;20024;-72
2021/08/13 08:38:58;;;;;;;12.70;8.25;;;21.10;99.90;;;;;;5093055;28;20035;-72
2021/08/13 08:41:25;;;;;;;11.55;7.78;;;21.20;99.90;;;;;;5095080;28;20537;-72
2021/08/13 08:43:51;;;;;;;10.75;8.20;;;21.20;99.90;;;;;;5094731;28;20066;-72
2021/08/13 08:46:19;;;;;;;11.55;8.10;;;21.20;99.90;;;;;;5094351;28;20020;-76
2021/08/13 08:48:48;;;;;;;12.50;7.60;;;21.20;99.90;;;;;;5094723;28;20020;-73
2021/08/13 08:51:16;;;;;;;11.85;7.70;;;21.20;99.90;;;;;;5094986;28;20398;-72
2021/08/13 08:53:43;;;;;;;7.97;6.43;;;21.20;99.90;;;;;;5094263;28;20036;-73
2021/08/13 08:56:09;;;;;;;9.25;7.30;;;21.20;99.90;;;;;;5095012;28;20023;-72
2021/08/13 08:58:35;;;;;;;8.90;6.47;;;21.20;99.90;;;;;;5094835;28;20127;-72
2021/08/13 09:01:01;;;;;;;12.82;8.07;;;21.20;99.90;;;;;;5093938;28;20028;-76
2021/08/13 09:03:27;;;;;;;10.85;7.93;;;21.10;99.90;;;;;;5093687;28;20030;-75
2021/08/13 09:05:52;;;;;;;10.65;7.10;;;21.10;99.90;;;;;;5092618;28;20024;-73
2021/08/13 09:08:18;;;;;;;8.18;6.32;;;21.10;99.90;;;;;;5094688;28;20016;-80
2021/08/13 09:10:45;;;;;;;9.30;7.18;;;21.10;99.90;;;;;;5094195;28;20044;-74
2021/08/13 09:13:11;;;;;;;7.68;6.40;;;21.10;99.90;;;;;;5093735;28;20028;-74
2021/08/13 09:15:42;;;;;;;9.32;7.57;;;21.10;99.90;;;;;;5094546;28;20481;-73
2021/08/13 09:18:12;;;;;;;11.82;8.27;;;21.10;99.90;;;;;;5094395;28;20035;-75
2021/08/13 09:20:39;;;;;;;9.38;8.45;;;21.10;99.90;;;;;;5093679;28;20376;-72
2021/08/13 09:23:05;;;;;;;8.52;6.57;;;21.30;99.90;;;;;;5094121;28;20024;-72
2021/08/13 09:25:30;;;;;;;7.57;5.75;;;21.50;99.90;;;;;;5094148;28;20035;-72
2021/08/13 09:27:56;;;;;;;7.35;5.88;;;21.70;99.90;;;;;;5093274;28;20066;-72
2021/08/13 09:30:22;;;;;;;8.48;5.68;;;22.00;99.90;;;;;;5094436;28;20013;-72
2021/08/13 09:33:00;;;;;;;6.30;5.05;;;22.40;99.90;;;;;;5093796;28;20028;-72
2021/08/13 09:35:30;;;;;;;9.38;5.75;;;22.70;99.90;;;;;;5093926;28;20040;-78
2021/08/13 09:37:56;;;;;;;9.87;5.70;;;22.80;99.90;;;;;;5092623;28;20030;-73
2021/08/13 09:40:21;;;;;;;6.78;5.20;;;22.80;99.90;;;;;;5093510;28;20024;-73
2021/08/13 09:42:48;;;;;;;7.88;5.85;;;22.80;99.90;;;;;;5093186;28;20024;-73
2021/08/13 09:45:13;;;;;;;5.63;5.03;;;22.70;99.90;;;;;;5094247;28;20028;-82
2021/08/13 09:47:40;;;;;;;6.13;5.43;;;22.60;99.90;;;;;;5092905;28;20020;-73
2021/08/13 09:50:06;;;;;;;8.38;5.38;;;22.60;99.90;;;;;;5093267;28;20514;-72
2021/08/13 09:52:33;;;;;;;7.90;6.03;;;22.60;99.90;;;;;;5093737;28;20032;-72
2021/08/13 09:55:14;;;;;;;7.28;5.10;;;22.60;99.90;;;;;;5091518;28;20031;-72
2021/08/13 09:57:39;;;;;;;7.53;5.82;;;22.70;99.90;;;;;;5094086;28;20051;-72
2021/08/13 10:00:06;;;;;;;7.55;5.53;;;22.60;99.90;;;;;;5092349;28;20055;-72
2021/08/13 10:02:35;;;;;;;10.07;6.13;;;22.50;99.90;;;;;;5093178;28;20103;-72
2021/08/13 10:05:14;;;;;;;7.78;5.85;;;22.40;99.90;;;;;;5093819;28;20078;-72
2021/08/13 10:07:58;;;;;;;7.97;6.43;;;22.30;99.90;;;;;;5092884;28;20044;-72
2021/08/13 10:10:29;;;;;;;9.15;6.20;;;22.30;99.90;;;;;;5092817;28;20031;-72
2021/08/13 10:12:55;;;;;;;9.80;6.40;;;22.30;99.90;;;;;;5093280;28;20059;-72
2021/08/13 10:15:36;;;;;;;9.05;6.30;;;22.40;99.90;;;;;;5094107;28;20090;-80
2021/08/13 10:18:07;;;;;;;9.07;5.32;;;22.50;99.90;;;;;;5092301;28;20028;-77
2021/08/13 10:20:38;;;;;;;7.55;5.38;;;22.40;99.90;;;;;;5093981;28;20024;-76
2021/08/13 10:23:04;;;;;;;8.40;5.97;;;22.40;99.90;;;;;;5093000;28;20020;-73
2021/08/13 10:25:30;;;;;;;8.55;4.60;;;22.30;99.90;;;;;;5094070;28;20099;-74
2021/08/13 10:27:56;;;;;;;7.45;5.38;;;22.30;99.90;;;;;;5093770;28;20035;-72
2021/08/13 10:30:23;;;;;;;10.00;5.72;;;22.30;99.90;;;;;;5092681;28;20020;-73
2021/08/13 10:32:56;;;;;;;8.18;4.93;;;22.30;99.90;;;;;;5092981;28;20039;-77
2021/08/13 10:35:26;;;;;;;7.95;5.57;;;22.30;99.90;;;;;;5093025;28;20020;-73
2021/08/13 10:37:52;;;;;;;8.68;6.07;;;22.30;99.90;;;;;;5092884;28;20473;-72
2021/08/13 10:40:18;;;;;;;9.25;6.68;;;22.20;99.90;;;;;;5093463;28;20027;-79
2021/08/13 10:42:46;;;;;;;11.13;5.63;;;22.10;99.90;;;;;;5093436;28;20129;-82
2021/08/13 10:45:21;;;;;;;8.13;5.68;;;22.10;99.90;;;;;;5091991;28;20020;-77
2021/08/13 10:48:01;;;;;;;13.73;5.72;;;22.10;99.90;;;;;;5093660;28;20040;-72
2021/08/13 10:50:28;;;;;;;8.23;5.63;;;22.10;99.90;;;;;;5093399;28;20469;-74
2021/08/13 10:52:54;;;;;;;11.57;5.80;;;22.10;99.90;;;;;;5092815;28;20424;-72
2021/08/13 10:55:41;;;;;;;9.07;6.50;;;22.10;99.90;;;;;;5093828;28;20436;-72
2021/08/13 10:58:08;;;;;;;9.57;5.43;;;22.10;99.90;;;;;;5094272;28;20024;-73
2021/08/13 11:00:58;;;;;;;7.78;5.85;;;22.10;99.90;;;;;;5092937;28;20100;-72
2021/08/13 11:03:24;;;;;;;9.63;6.10;;;22.30;99.90;;;;;;5093324;28;20069;-76
2021/08/13 11:05:50;;;;;;;9.90;5.30;;;22.50;99.90;;;;;;5092475;28;20028;-72
2021/08/13 11:08:16;;;;;;;8.52;5.47;;;22.70;99.90;;;;;;5093368;28;20024;-76
2021/08/13 11:10:41;;;;;;;9.50;6.25;;;23.00;99.90;;;;;;5093864;28;20089;-72
2021/08/13 11:13:17;;;;;;;7.72;5.07;;;23.30;99.40;;;;;;5093058;28;20458;-72
2021/08/13 11:15:44;;;;;;;8.07;5.00;;;23.60;98.80;;;;;;5093470;28;20024;-73
2021/08/13 11:18:38;;;;;;;8.38;5.60;;;23.90;98.90;;;;;;5093926;28;20016;-73
2021/08/13 11:21:06;;;;;;;8.55;4.93;;;24.30;98.30;;;;;;5091991;28;20020;-83
2021/08/13 11:23:32;;;;;;;9.23;5.03;;;24.40;97.50;;;;;;5092863;28;20365;-72
2021/08/13 11:25:58;;;;;;;6.35;4.10;;;24.50;97.30;;;;;;5092451;28;20535;-71
2021/08/13 11:28:30;;;;;;;6.65;3.92;;;24.60;97.10;;;;;;5091896;28;20103;-79
2021/08/13 11:30:56;;;;;;;;;;;24.80;96.70;;;;;;5092913;28;20063;-72
2021/08/13 11:33:25;;;;;;;8.98;4.13;;;25.00;96.20;;;;;;5092604;28;20333;-72
2021/08/13 11:35:51;;;;;;;8.13;4.10;;;25.20;96.10;;;;;;5092246;28;20050;-72
2021/08/13 11:38:42;;;;;;;5.65;3.63;;;25.30;95.30;;;;;;5091461;28;20031;-76
2021/08/13 11:41:25;;;;;;;7.63;3.58;;;25.30;95.00;;;;;;5092992;28;20036;-73
2021/08/13 11:43:53;;;;;;;5.78;3.80;;;25.30;93.90;;;;;;5093262;28;20020;-73
2021/08/13 11:46:35;;;;;;;7.28;3.83;;;25.10;93.90;;;;;;5093130;28;20391;-75
2021/08/13 11:49:02;;;;;;;8.88;3.72;;;25.10;94.10;;;;;;5095302;28;20028;-72
2021/08/13 11:51:29;;;;;;;6.72;3.58;;;25.30;93.90;;;;;;5096267;28;20063;-72
2021/08/13 11:53:56;;;;;;;8.68;4.25;;;25.50;93.80;;;;;;5095902;28;20035;-72
2021/08/13 11:56:30;;;;;;;7.63;4.50;;;25.50;93.40;;;;;;5095464;28;20024;-72
2021/08/13 11:59:06;;;;;;;4.55;3.33;;;25.50;93.30;;;;;;5095684;28;20093;-72
2021/08/13 12:01:52;;;;;;;5.40;3.35;;;25.50;93.60;;;;;;5095937;28;20020;-73
2021/08/13 12:04:23;;;;;;;7.72;3.42;;;25.70;93.60;;;;;;5097461;28;20473;-72
2021/08/13 12:07:08;;;;;;;4.22;3.17;;;25.80;93.10;;;;;;5095788;28;20020;-73
2021/08/13 12:09:39;;;;;;;5.22;3.55;;;25.80;92.10;;;;;;5095180;28;20487;-72
2021/08/13 12:12:07;;;;;;;5.50;3.20;;;25.80;91.10;;;;;;5096376;28;20094;-72
2021/08/13 12:14:34;;;;;;;4.18;2.88;;;25.70;90.40;;;;;;5097349;28;20016;-72
2021/08/13 12:17:00;;;;;;;4.40;2.90;;;25.70;90.40;;;;;;5096057;28;20020;-74
2021/08/13 12:19:26;;;;;;;3.80;2.90;;;25.80;90.20;;;;;;5096666;28;20472;-72
2021/08/13 12:21:55;;;;;;;6.00;2.97;;;25.70;89.80;;;;;;5096626;28;20024;-72
2021/08/13 12:24:30;;;;;;;5.35;2.85;;;25.70;90.10;;;;;;5095466;28;20070;-73
2021/08/13 12:26:57;;;;;;;7.60;2.90;;;25.70;89.80;;;;;;5095409;28;20066;-74
2021/08/13 12:29:27;;;;;;;4.30;2.97;;;25.80;90.40;;;;;;5095227;28;20024;-83
2021/08/13 12:31:54;;;;;;;5.28;2.67;;;25.90;90.60;;;;;;5096239;28;20451;-75
2021/08/13 12:34:21;;;;;;;5.65;2.53;;;26.00;89.70;;;;;;5096162;28;20047;-84
2021/08/13 12:36:47;;;;;;;3.83;2.13;;;25.90;86.80;;;;;;5096658;28;20024;-79
2021/08/13 12:39:22;;;;;;;3.83;2.10;;;25.80;84.60;;;;;;5096462;28;20012;-79
2021/08/13 12:41:47;;;;;;;4.53;2.33;;;25.70;85.30;;;;;;5097909;28;20036;-75